Latest Coastal Weather Observations for Cape Grim

IDT60701

Issued at 10:04 pm EST Saturday 1 October 2016 (issued every 10 minutes, with the page automatically refreshed every 10 minutes)

About coastal observations | Map of coastal stations | Coastal observations for TAS | Marine services | Other Formats
Station Details ID: 091331 Name: CAPE GRIM Lat: -40.68 Lon: 144.69 Height: 86.0 m
Data from the previous 72 hours. | See also: Recent months at Cape Grim
Date/Time
EST
Temp
°C
Wind Pressure Rain since
9am
mm
Weather Cloud Vis
km
Sea
Height
m
Swell
Dir  Spd
kts
Gust
kts
hPa Trend Height
m
Period
s
Dir
01/10:00pm 11.1 W 15 22 1004.3 - 0.0 - Partly cloudy - - - - -
01/09:30pm 11.3 W 15 25 1004.1 - 0.0 - Partly cloudy - - - - -
01/09:29pm 11.5 W 15 25 1004.1 - 0.0 - Partly cloudy - - - - -
01/09:00pm 11.5 W 15 22 1003.9 - 0.0 - Partly cloudy - - - - -
01/08:45pm 11.9 W 17 27 1003.7 - 0.0 - Partly cloudy - - - - -
01/08:30pm 12.2 W 17 25 1003.5 - 0.0 - Cloudy - - - - -
01/08:06pm 11.9 W 16 26 1003.1 - 0.0 - Cloudy - - - - -
01/08:00pm 12.1 W 17 26 1003.1 - 0.0 - Cloudy - - - - -
01/07:30pm 12.2 W 20 30 1002.5 - 0.0 - Partly cloudy - - - - -
01/07:18pm 12.1 W 21 34 1002.3 - 0.0 - Partly cloudy - - - - -
01/07:00pm 11.9 W 20 27 1002.1 - 0.0 - Partly cloudy - - - - -
01/06:59pm 12.0 W 20 27 1002.0 - 0.0 - Partly cloudy - - - - -
01/06:40pm 12.0 W 19 28 1001.9 - 0.0 - Partly cloudy - - - - -
01/06:33pm 11.6 W 17 28 1001.8 - 0.0 - Partly cloudy - - - - -
01/06:30pm 11.9 W 18 26 1001.8 - 0.0 - Partly cloudy - - - - -
01/06:06pm 11.5 W 20 30 1001.4 - 0.0 - Partly cloudy - - - - -
01/06:00pm 11.3 W 20 27 1001.3 - 0.0 - Cloudy - - - - -
01/05:39pm 11.7 W 20 31 1001.0 - 0.0 - Partly cloudy - - - - -
01/05:30pm 12.2 W 20 28 1000.8 - 0.0 - Partly cloudy - - - - -
01/05:03pm 12.1 W 21 32 1000.3 - 0.0 - Partly cloudy - - - - -
01/05:00pm 12.2 W 21 30 1000.3 - 0.0 - Partly cloudy - - - - -
01/04:30pm 12.0 W 21 31 1000.1 - 0.0 - Partly cloudy - - - - -
01/04:00pm 12.2 W 22 32 999.6 - 0.0 - Cloudy - - - - -
01/03:43pm 12.0 W 21 34 999.3 - 0.0 - Partly cloudy - - - - -
01/03:30pm 12.3 W 21 29 999.1 - 0.0 - Partly cloudy - - - - -
01/03:00pm 12.6 W 20 30 998.8 - 0.0 - Mostly cloudy - - - - -
01/02:30pm 12.0 W 20 31 998.4 - 0.0 - Partly cloudy - - - - -
01/02:05pm 12.1 W 21 31 998.2 - 0.0 - Partly cloudy - - - - -
01/02:00pm 12.0 W 22 31 998.1 - 0.0 - Partly cloudy - - - - -
01/01:30pm 12.2 W 21 35 997.8 - 0.0 - Partly cloudy - - - - -
01/01:27pm 12.1 W 21 35 997.8 - 0.0 - Partly cloudy - - - - -
01/01:00pm 12.2 W 21 30 997.6 - 0.0 - Cloudy - - - - -
01/12:30pm 12.5 W 20 30 997.5 - 0.0 - Partly cloudy - - - - -
01/12:28pm 12.5 W 20 30 997.5 - 0.0 - Partly cloudy - - - - -
01/12:00pm 12.4 W 21 30 997.3 - 0.0 - Mostly cloudy - - - - -
01/11:30am 12.1 W 20 30 997.2 - 0.0 - Partly cloudy - - - - -
01/11:12am 12.4 W 19 29 997.2 - 0.0 - Partly cloudy - - - - -
01/11:00am 12.3 W 21 29 997.0 - 0.0 - Partly cloudy - - - - -
01/10:34am 12.2 W 21 31 996.9 - 0.0 - Partly cloudy - - - - -
01/10:30am 12.0 W 21 29 996.8 - 0.0 - Partly cloudy - - - - -
01/10:00am 12.2 W 22 32 996.6 - 0.0 - Partly cloudy - - - - -
01/09:31am 12.1 W 20 30 996.4 - 0.0 - Partly cloudy - - - - -
01/09:30am 12.1 W 21 30 996.4 - 0.0 - Partly cloudy - - - - -
01/09:00am 12.0 W 19 29 996.2 - 17.4 - Cloudy - - - - -
01/08:30am 11.9 W 19 29 995.9 - 17.4 - Partly cloudy - - - - -
01/08:00am 11.9 W 20 30 995.5 - 17.4 - Partly cloudy - - - - -
01/07:30am 11.9 W 22 33 995.4 - 17.4 - Partly cloudy - - - - -
01/07:00am 11.4 W 20 30 994.7 - 17.4 - Partly cloudy - - - - -
01/06:34am 11.3 W 21 32 994.5 - 17.0 - Partly cloudy - - - - -
01/06:30am 11.5 W 20 26 994.4 - 16.8 - Partly cloudy - - - - -
01/06:00am 11.2 W 19 27 993.9 - 16.4 Rain Cloudy - - - - -
01/05:52am 11.2 W 17 27 993.8 - 16.2 - Partly cloudy - - - - -
01/05:31am 11.2 W 16 24 993.6 - 16.2 - Partly cloudy - - - - -
01/05:30am 11.2 W 16 24 993.5 - 16.2 - Partly cloudy - - - - -
01/05:07am 11.2 W 16 28 993.3 - 15.8 - Partly cloudy - - - - -
01/05:01am 11.1 W 15 24 993.2 - 15.8 - Partly cloudy - - - - -
01/05:00am 11.1 W 15 24 993.2 - 15.6 - Partly cloudy - - - - -
01/04:30am 10.7 W 17 22 992.8 - 15.0 - Partly cloudy - - - - -
01/04:00am 11.7 W 15 21 992.5 - 14.8 - Partly cloudy - - - - -
01/03:44am 10.8 W 15 25 992.4 - 14.6 - Partly cloudy - - - - -
01/03:30am 10.9 W 12 17 992.3 - 13.8 - Partly cloudy - - - - -
01/03:05am 11.1 W 13 18 992.2 - 13.6 - Partly cloudy - - - - -
01/03:00am 11.2 W 15 22 992.2 - 13.6 Rain Mostly cloudy - - - - -
01/02:51am 11.2 WNW 17 22 992.1 - 13.4 - Partly cloudy - - - - -
01/02:30am 10.8 WNW 16 22 992.2 - 12.8 - Partly cloudy - - - - -
01/02:00am 11.0 WNW 19 23 992.2 - 12.4 - Partly cloudy - - - - -
01/01:30am 10.8 WNW 19 24 992.3 - 11.8 - Partly cloudy - - - - -
01/01:28am 10.9 WNW 19 25 992.3 - 11.8 - Partly cloudy - - - - -
01/01:11am 10.8 WNW 19 24 992.3 - 11.6 - Partly cloudy - - - - -
01/01:09am 10.8 WNW 19 27 992.3 - 11.6 - Partly cloudy - - - - -
01/01:00am 10.6 WNW 22 27 992.2 - 11.6 - Partly cloudy - - - - -
01/12:55am 10.8 WNW 21 27 992.2 - 11.4 - Partly cloudy - - - - -
01/12:30am 10.4 WNW 24 31 992.2 - 10.6 - Partly cloudy - - - - -
01/12:00am 10.2 WNW 25 30 992.2 - 9.4 Rain Mostly cloudy - - - - -
 
Date/Time
EST
Temp
°C
Wind Pressure Rain since
9am
mm
Weather Cloud Vis
km
Sea
Height
m
Swell
Dir  Spd
kts
Gust
kts
hPa Trend Height
m
Period
s
Dir
30/11:30pm 10.1 NW 23 31 992.5 - 8.4 - Partly cloudy - - - - -
30/11:00pm 10.2 NW 26 36 992.6 - 7.4 - Partly cloudy - - - - -
30/10:36pm 10.4 WNW 21 31 992.7 - 6.6 - Partly cloudy - - - - -
30/10:30pm 10.9 WNW 20 27 992.8 - 6.4 - Partly cloudy - - - - -
30/10:00pm 10.5 NW 19 26 992.9 - 5.8 - Partly cloudy - - - - -
30/09:30pm 10.6 NW 19 27 993.1 - 4.8 - Partly cloudy - - - - -
30/09:00pm 10.3 WNW 18 25 993.3 - 4.4 Rain Cloudy - - - - -
30/08:32pm 9.9 W 18 28 993.4 - 3.8 - Partly cloudy - - - - -
30/08:30pm 10.3 W 18 26 993.5 - 3.4 - Partly cloudy - - - - -
30/08:17pm 9.9 W 17 31 993.3 - 3.0 - Partly cloudy - - - - -
30/08:00pm 9.6 WNW 14 19 993.4 - 2.4 - Partly cloudy - - - - -
30/07:38pm 9.7 W 19 29 993.3 - 1.6 - Partly cloudy - - - - -
30/07:30pm 9.9 W 22 29 993.3 - 1.2 - Partly cloudy - - - - -
30/07:00pm 10.6 W 18 28 992.9 - 0.8 - Partly cloudy - - - - -
30/06:42pm 10.4 W 16 26 992.8 - 0.0 - Partly cloudy - - - - -
30/06:30pm 10.9 W 19 25 992.9 - 0.0 - Partly cloudy - - - - -
30/06:00pm 11.2 W 16 21 992.7 - 0.0 - Cloudy - - - - -
30/05:30pm 11.2 W 14 19 992.5 - 0.0 - Partly cloudy - - - - -
30/05:00pm 11.2 W 13 18 992.4 - 0.0 - Partly cloudy - - - - -
30/04:30pm 11.1 W 13 20 992.2 - 0.0 - Partly cloudy - - - - -
30/04:00pm 11.3 WSW 12 20 992.0 - 0.0 - Partly cloudy - - - - -
30/03:30pm 11.3 W 12 19 992.0 - 0.0 - Cloudy - - - - -
30/03:00pm 11.3 W 11 18 992.0 - 0.0 - Mostly cloudy - - - - -
30/02:30pm 11.4 WSW 8 16 992.2 - 0.0 - Partly cloudy - - - - -
30/02:00pm 11.2 W 11 18 992.1 - 0.0 - Partly cloudy - - - - -
30/01:30pm 11.1 WSW 9 15 992.1 - 0.0 - Partly cloudy - - - - -
30/01:00pm 11.2 SW 12 19 991.9 - 0.0 - Partly cloudy - - - - -
30/12:30pm 11.3 SW 11 16 992.0 - 0.0 - Partly cloudy - - - - -
30/12:00pm 11.3 SW 13 16 992.1 - 0.0 - Cloudy - - - - -
30/11:30am 11.4 SW 11 16 992.2 - 0.0 - Partly cloudy - - - - -
30/11:00am 11.1 SW 9 13 992.3 - 0.0 - Partly cloudy - - - - -
30/10:30am 11.3 SW 7 10 992.4 - 0.0 - - - - - - -
30/10:00am 11.0 SW 9 11 992.6 - 0.0 - - - - - - -
30/09:30am 10.8 SW 8 11 992.6 - 0.0 - Partly cloudy - - - - -
30/09:00am 10.3 SW 8 9 992.6 - 6.8 - Cloudy - - - - -
30/08:30am 10.2 SW 7 9 992.4 - 6.8 - - - - - - -
30/08:00am 9.9 S 5 6 992.4 - 6.8 - - - - - - -
30/07:30am 9.4 SSE 5 6 992.2 - 6.8 - - - - - - -
30/07:00am 8.6 SSE 5 5 991.7 - 6.8 - - - - - - -
30/06:30am 8.4 SSE 5 7 991.4 - 6.8 - - - - - - -
30/06:00am 7.8 ESE 9 9 991.1 - 6.8 - Mostly clear - - - - -
30/05:30am 7.6 ESE 10 11 990.9 - 6.8 - - - - - - -
30/05:00am 7.4 E 11 12 990.8 - 6.8 - - - - - - -
30/04:30am 7.5 ESE 13 14 991.1 - 6.8 - Partly cloudy - - - - -
30/04:00am 7.6 E 11 14 991.0 - 6.8 - - - - - - -
30/03:30am 8.2 E 10 11 990.4 - 6.8 - - - - - - -
30/03:04am 7.9 E 10 11 990.5 - 6.6 - Partly cloudy - - - - -
30/03:00am 7.9 E 10 11 990.7 - 6.6 - Mostly clear - - - - -
30/02:30am 7.8 E 10 11 991.2 - 6.6 - Partly cloudy - - - - -
30/02:15am 8.0 E 11 13 991.4 - 6.6 - Partly cloudy - - - - -
30/02:00am 7.8 E 11 13 991.5 - 6.6 - Partly cloudy - - - - -
30/01:30am 7.7 E 11 12 991.5 - 6.6 - - - - - - -
30/01:00am 7.6 ESE 9 10 991.3 - 6.6 - - - - - - -
30/12:30am 8.5 ESE 9 9 991.3 - 6.6 - - - - - - -
30/12:00am 8.0 ENE 7 8 991.2 - 6.6 - - - - - - -
 
Date/Time
EST
Temp
°C
Wind Pressure Rain since
9am
mm
Weather Cloud Vis
km
Sea
Height
m
Swell
Dir  Spd
kts
Gust
kts
hPa Trend Height
m
Period
s
Dir
29/11:30pm 8.7 ENE 5 6 991.2 - 6.6 - - - - - - -
29/11:00pm 9.0 NW 5 6 991.2 - 6.6 - - - - - - -
29/10:30pm 9.7 CALM 0 0 991.2 - 6.6 - - - - - - -
29/10:00pm 9.8 NW 3 4 991.4 - 6.6 - - - - - - -
29/09:30pm 9.8 NW 3 4 991.4 - 6.6 - - - - - - -
29/09:00pm 10.0 NW 4 6 991.1 - 6.6 - - - - - - -
29/08:30pm 9.9 WNW 5 7 991.1 - 6.6 - - - - - - -
29/08:00pm 10.0 NW 5 6 991.2 - 6.6 - - - - - - -
29/07:30pm 10.5 W 7 9 990.9 - 6.6 - Partly cloudy - - - - -
29/07:00pm 10.6 W 6 9 990.3 - 6.6 - Partly cloudy - - - - -
29/06:30pm 10.8 W 7 11 989.7 - 6.6 - Partly cloudy - - - - -
29/06:00pm 10.7 W 9 12 989.3 - 6.6 - Cloudy - - - - -
29/05:30pm 10.7 WSW 8 11 988.9 - 6.6 - Partly cloudy - - - - -
29/05:03pm 10.7 W 7 11 988.7 - 6.6 - Partly cloudy - - - - -
29/05:00pm 10.7 W 8 11 988.6 - 6.6 - Partly cloudy - - - - -
29/04:30pm 10.6 W 7 9 988.5 - 6.4 - Partly cloudy - - - - -
29/04:00pm 10.5 W 7 11 987.8 - 6.4 - Partly cloudy - - - - -
29/03:49pm 10.5 W 7 9 988.0 - 6.4 - Partly cloudy - - - - -
29/03:32pm 10.8 W 7 10 987.8 - 6.2 - Partly cloudy - - - - -
29/03:30pm 10.8 W 7 10 987.7 - 6.2 - Partly cloudy - - - - -
29/03:00pm 11.3 N 7 9 987.6 - 5.8 Recent precip. Cloudy - - - - -
29/02:30pm 11.2 N 8 9 987.4 - 5.8 - Partly cloudy - - - - -
29/02:00pm 11.1 N 11 13 987.6 - 5.2 - Partly cloudy - - - - -
29/01:30pm 11.5 NNE 15 19 987.8 - 4.6 - Partly cloudy - - - - -
29/01:00pm 12.0 NE 16 20 988.0 - 3.6 - Partly cloudy - - - - -
29/12:47pm 12.0 NE 18 22 987.9 - 3.6 - Partly cloudy - - - - -
29/12:30pm 12.2 NE 19 24 988.1 - 3.4 - Partly cloudy - - - - -
29/12:00pm 12.0 ENE 22 27 987.8 - 3.0 - Cloudy - - - - -
29/11:30am 12.0 ENE 21 27 987.8 - 3.0 - Partly cloudy - - - - -
29/11:00am 11.8 ENE 22 28 987.9 - 3.0 - Partly cloudy - - - - -
29/10:30am 11.8 ENE 23 29 988.6 - 2.8 - Partly cloudy - - - - -
29/10:20am 11.6 ENE 23 30 988.8 - 2.6 - Partly cloudy - - - - -
29/10:13am 11.6 ENE 25 31 989.0 - 2.6 - Partly cloudy - - - - -
29/10:00am 11.4 ENE 25 33 989.0 - 2.2 - Partly cloudy - - - - -
29/09:37am 11.4 ENE 27 37 989.2 - 2.0 - Partly cloudy - - - - -
29/09:30am 11.3 ENE 28 35 989.1 - 1.8 - Partly cloudy - - - - -
29/09:02am 11.5 ENE 27 37 989.9 - 0.2 - Partly cloudy - - - - -
29/09:00am 11.5 ENE 27 36 989.9 - 14.0 Rain Cloudy - - - - -
29/08:54am 11.5 ENE 26 36 990.1 - 13.4 - Partly cloudy - - - - -
29/08:40am 11.6 ENE 27 33 990.2 - 12.2 - Partly cloudy - - - - -
29/08:39am 11.6 ENE 27 33 990.2 - 12.2 - Partly cloudy - - - - -
29/08:30am 11.7 ENE 26 33 989.9 - 11.8 - Partly cloudy - - - - -
29/08:23am 11.9 ENE 27 34 989.7 - 11.4 - Partly cloudy - - - - -
29/08:11am 11.9 ENE 30 37 989.6 - 10.6 - Partly cloudy - - - - -
29/08:00am 12.0 ENE 31 40 989.3 - 10.0 - Partly cloudy - - - - -
29/07:52am 12.0 ENE 30 40 989.2 - 10.0 - Partly cloudy - - - - -
29/07:36am 12.1 ENE 29 36 989.0 - 10.0 - Partly cloudy - - - - -
29/07:30am 11.9 ENE 31 38 989.1 - 10.0 - Partly cloudy - - - - -
29/07:25am 11.8 ENE 32 42 989.0 - 10.0 - Partly cloudy - - - - -
29/07:24am 11.7 E 33 42 989.0 - 10.0 - Partly cloudy - - - - -
29/07:12am 11.9 ENE 33 43 989.0 - 10.0 - Partly cloudy - - - - -
29/07:04am 11.9 ENE 33 43 989.0 - 10.0 - Partly cloudy - - - - -
29/07:03am 11.9 ENE 33 41 989.1 - 10.0 - Partly cloudy - - - - -
29/07:00am 11.9 ENE 32 41 989.2 - 10.0 - Partly cloudy - - - - -
29/06:44am 11.8 ENE 30 41 989.2 - 9.8 - Partly cloudy - - - - -
29/06:30am 12.0 ENE 28 35 989.8 - 9.6 - Partly cloudy - - - - -
29/06:00am 12.1 ENE 30 40 990.1 - 9.6 Recent precip. Cloudy - - - - -
29/05:57am 12.0 ENE 30 40 990.1 - 9.6 - Partly cloudy - - - - -
29/05:30am 12.0 ENE 30 39 989.8 - 9.4 - Partly cloudy - - - - -
29/05:02am 12.1 ENE 28 38 991.2 - 7.0 - Partly cloudy - - - - -
29/05:00am 12.1 ENE 28 37 991.3 - 6.8 - Partly cloudy - - - - -
29/04:50am 12.0 ENE 30 36 990.9 - 5.8 - Partly cloudy - - - - -
29/04:48am 12.0 ENE 31 39 990.8 - 5.6 - Partly cloudy - - - - -
29/04:35am 12.0 ENE 31 41 990.5 - 5.0 - Partly cloudy - - - - -
29/04:30am 12.0 ENE 32 41 990.7 - 4.8 - Partly cloudy - - - - -
29/04:00am 12.0 ENE 31 39 991.2 - 3.2 - Partly cloudy - - - - -
29/03:30am 12.0 ENE 30 39 991.9 - 1.6 - Partly cloudy - - - - -
29/03:07am 12.1 ENE 31 41 992.7 - 0.2 - Partly cloudy - - - - -
29/03:00am 12.2 ENE 32 40 992.8 - 0.2 Rain Cloudy - - - - -
29/02:49am 12.2 ENE 31 41 992.9 - 0.0 - Partly cloudy - - - - -
29/02:30am 12.4 ENE 31 40 993.4 - 0.0 - Cloudy - - - - -
29/02:00am 12.3 ENE 36 47 993.3 - 0.0 - Partly cloudy - - - - -
29/01:31am 12.2 ENE 34 44 993.9 - 0.0 - Partly cloudy - - - - -
29/01:30am 12.2 ENE 34 43 994.0 - 0.0 - Partly cloudy - - - - -
29/01:00am 12.2 ENE 32 42 995.2 - 0.0 - Partly cloudy - - - - -
29/12:34am 12.2 ENE 31 42 995.8 - 0.0 - Partly cloudy - - - - -
29/12:31am 12.1 ENE 30 42 995.9 - 0.0 - Partly cloudy - - - - -
29/12:30am 12.1 ENE 29 38 995.9 - 0.0 - Partly cloudy - - - - -
29/12:25am 12.1 ENE 30 40 996.1 - 0.0 - Partly cloudy - - - - -
29/12:00am 12.1 ENE 28 37 997.3 - 0.0 - Cloudy - - - - -
 
Date/Time
EST
Temp
°C
Wind Pressure Rain since
9am
mm
Weather Cloud Vis
km
Sea
Height
m
Swell
Dir  Spd
kts
Gust
kts
hPa Trend Height
m
Period
s
Dir
28/11:32pm 12.0 ENE 29 39 998.1 - 0.0 - - - - - - -
28/11:30pm 12.0 ENE 30 39 998.0 - 0.0 - - - - - - -
28/11:11pm 11.9 ENE 29 39 998.1 - 0.0 - - - - - - -
28/11:00pm 11.7 ENE 29 38 998.4 - 0.0 - - - - - - -
28/10:30pm 11.7 ENE 29 37 999.0 - 0.0 - - - - - - -
28/10:10pm 11.6 ENE 29 39 999.2 - 0.0 - Partly cloudy - - - - -

Other Formats:

Comma delimited format used in spreadsheet applications
http://www.bom.gov.au/fwo/IDT60701/IDT60701.95954.axf

JavaScript Object Notation format (JSON) in row-major order
http://www.bom.gov.au/fwo/IDT60701/IDT60701.95954.json